createdAt,value
2023-06-11T00:01:44.124Z,7.17
2023-06-11T00:04:20.420Z,7.33
2023-06-11T00:06:49.781Z,7.00
2023-06-11T00:09:20.620Z,7.50
2023-06-11T00:11:48.815Z,6.47
2023-06-11T00:14:17.127Z,7.07
2023-06-11T00:16:47.098Z,6.83
2023-06-11T00:19:20.453Z,6.80
2023-06-11T00:21:50.597Z,6.17
2023-06-11T00:24:19.429Z,6.47
2023-06-11T00:26:47.951Z,6.77
2023-06-11T00:29:16.238Z,7.37
2023-06-11T00:31:44.751Z,6.17
2023-06-11T00:34:13.526Z,6.73
2023-06-11T00:36:43.419Z,5.97
2023-06-11T00:39:13.384Z,6.93
2023-06-11T00:41:46.913Z,7.20
2023-06-11T00:44:19.066Z,6.50
2023-06-11T00:46:48.591Z,6.57
2023-06-11T00:49:17.140Z,6.80
2023-06-11T00:51:47.626Z,6.77
2023-06-11T00:54:17.972Z,5.50
2023-06-11T00:56:46.638Z,6.00
2023-06-11T00:59:16.427Z,6.10
2023-06-11T01:01:52.151Z,5.90
2023-06-11T01:04:21.825Z,7.30
2023-06-11T01:06:56.069Z,6.53
2023-06-11T01:09:25.095Z,6.57
2023-06-11T01:11:54.823Z,7.10
2023-06-11T01:14:24.177Z,6.47
2023-06-11T01:16:59.048Z,5.63
2023-06-11T01:19:38.601Z,6.93
2023-06-11T01:22:16.621Z,5.97
2023-06-11T01:25:16.204Z,5.73
2023-06-11T01:28:08.475Z,5.30
2023-06-11T01:30:39.503Z,6.00
2023-06-11T01:33:09.895Z,6.27
2023-06-11T01:35:42.671Z,5.60
2023-06-11T01:38:11.182Z,5.10
2023-06-11T01:40:46.750Z,5.10
2023-06-11T01:43:16.709Z,5.10
2023-06-11T01:45:44.992Z,5.63
2023-06-11T01:48:13.434Z,4.80
2023-06-11T01:50:43.250Z,5.37
2023-06-11T01:53:12.238Z,5.37
2023-06-11T01:55:43.893Z,5.20
2023-06-11T01:58:13.133Z,5.40
2023-06-11T02:00:43.105Z,6.17
2023-06-11T02:03:12.601Z,5.47
2023-06-11T02:05:40.945Z,4.93
2023-06-11T02:08:09.227Z,4.77
2023-06-11T02:10:38.207Z,4.57
2023-06-11T02:13:07.053Z,4.77
2023-06-11T02:15:35.744Z,5.50
2023-06-11T02:18:05.732Z,5.37
2023-06-11T02:20:34.261Z,4.73
2023-06-11T02:23:03.303Z,5.10
2023-06-11T02:25:31.615Z,5.50
2023-06-11T02:27:59.812Z,5.60
2023-06-11T02:30:30.083Z,6.37
2023-06-11T02:32:58.641Z,5.27
2023-06-11T02:35:28.482Z,5.70
2023-06-11T02:37:56.717Z,4.60
2023-06-11T02:40:25.007Z,4.90
2023-06-11T02:42:53.257Z,4.87
2023-06-11T02:45:21.645Z,5.53
2023-06-11T02:47:49.884Z,4.87
2023-06-11T02:50:18.212Z,5.93
2023-06-11T02:52:48.021Z,4.90
2023-06-11T02:55:17.320Z,4.93
2023-06-11T02:57:46.314Z,5.70
2023-06-11T03:00:15.344Z,5.80
2023-06-11T03:02:43.778Z,5.60
2023-06-11T03:05:14.617Z,4.60
2023-06-11T03:07:43.213Z,5.43
2023-06-11T03:10:13.215Z,4.83
2023-06-11T03:12:41.890Z,5.30
2023-06-11T03:15:11.253Z,5.53
2023-06-11T03:17:39.740Z,5.20
2023-06-11T03:20:09.410Z,4.80
2023-06-11T03:22:38.224Z,5.10
2023-06-11T03:25:07.888Z,5.50
2023-06-11T03:27:38.942Z,5.33
2023-06-11T03:30:08.559Z,4.47
2023-06-11T03:32:39.969Z,5.97
2023-06-11T03:35:09.957Z,5.27
2023-06-11T03:37:38.896Z,5.80
2023-06-11T03:40:10.078Z,5.50
2023-06-11T03:42:40.369Z,5.00
2023-06-11T03:45:10.020Z,6.00
2023-06-11T03:47:38.658Z,5.17
2023-06-11T03:50:08.515Z,5.77
2023-06-11T03:52:36.810Z,5.53
2023-06-11T03:55:09.783Z,6.53
2023-06-11T03:57:40.126Z,5.90
2023-06-11T04:00:09.550Z,6.27
2023-06-11T04:02:45.503Z,5.50
2023-06-11T04:05:18.886Z,5.90
2023-06-11T04:07:54.567Z,5.17
2023-06-11T04:10:24.912Z,4.83
2023-06-11T04:12:54.706Z,5.07
2023-06-11T04:15:23.577Z,4.37
2023-06-11T04:17:51.991Z,5.23
2023-06-11T04:20:21.081Z,5.63
2023-06-11T04:22:49.532Z,6.17
2023-06-11T04:25:20.899Z,5.33
2023-06-11T04:27:49.493Z,5.93
2023-06-11T04:30:21.475Z,5.50
2023-06-11T04:32:56.435Z,6.20
2023-06-11T04:35:27.742Z,5.83
2023-06-11T04:37:57.050Z,5.70
2023-06-11T04:40:28.292Z,5.97
2023-06-11T04:42:59.018Z,5.60
2023-06-11T04:45:31.688Z,7.00
2023-06-11T04:48:04.343Z,5.40
2023-06-11T04:50:33.937Z,5.77
2023-06-11T04:53:04.365Z,6.10
2023-06-11T04:55:33.581Z,5.50
2023-06-11T04:58:03.873Z,4.63
2023-06-11T05:00:34.028Z,6.40
2023-06-11T05:03:05.645Z,4.57
2023-06-11T05:05:35.819Z,4.77
2023-06-11T05:08:05.555Z,5.50
2023-06-11T05:10:35.706Z,5.50
2023-06-11T05:13:03.980Z,5.60
2023-06-11T05:15:34.198Z,5.13
2023-06-11T05:18:02.808Z,4.50
2023-06-11T05:20:32.114Z,5.17
2023-06-11T05:23:00.970Z,5.20
2023-06-11T05:25:32.804Z,4.80
2023-06-11T05:28:04.091Z,5.40
2023-06-11T05:30:37.948Z,4.23
2023-06-11T05:33:08.571Z,5.20
2023-06-11T05:35:37.245Z,5.13
2023-06-11T05:38:07.475Z,4.60
2023-06-11T05:40:37.623Z,4.50
2023-06-11T05:43:06.926Z,4.80
2023-06-11T05:45:38.514Z,4.57
2023-06-11T05:48:08.200Z,4.60
2023-06-11T05:50:40.884Z,4.50
2023-06-11T05:53:10.612Z,5.03
2023-06-11T05:55:42.141Z,4.53
2023-06-11T05:58:14.359Z,4.67
2023-06-11T06:00:45.196Z,4.40
2023-06-11T06:03:13.905Z,5.00
2023-06-11T06:05:44.352Z,3.73
2023-06-11T06:08:13.696Z,3.80
2023-06-11T06:10:42.365Z,4.60
2023-06-11T06:13:10.886Z,4.80
2023-06-11T06:15:40.543Z,4.83
2023-06-11T06:18:10.339Z,4.97
2023-06-11T06:20:42.741Z,4.37
2023-06-11T06:23:13.484Z,5.17
2023-06-11T06:25:45.221Z,5.53
2023-06-11T06:28:15.300Z,5.80
2023-06-11T06:30:44.020Z,5.60
2023-06-11T06:33:14.625Z,4.87
2023-06-11T06:35:42.952Z,5.90
2023-06-11T06:38:11.303Z,5.10
2023-06-11T06:40:44.701Z,6.03
2023-06-11T06:43:13.117Z,6.33
2023-06-11T06:45:43.871Z,5.57
2023-06-11T06:48:24.532Z,6.10
2023-06-11T06:50:53.045Z,5.70
2023-06-11T06:53:21.456Z,5.57
2023-06-11T06:55:52.243Z,6.00
2023-06-11T06:58:21.621Z,6.43
2023-06-11T07:00:50.296Z,5.37
2023-06-11T07:03:20.600Z,6.20
2023-06-11T07:05:50.760Z,5.40
2023-06-11T07:08:19.574Z,5.40
2023-06-11T07:10:52.148Z,6.03
2023-06-11T07:13:28.553Z,6.03
2023-06-11T07:15:57.903Z,5.37
2023-06-11T07:18:29.012Z,5.67
2023-06-11T07:20:59.540Z,5.60
2023-06-11T07:23:28.066Z,5.37
2023-06-11T07:25:58.238Z,5.67
2023-06-11T07:28:29.481Z,5.80
2023-06-11T07:30:59.414Z,5.73
2023-06-11T07:33:28.220Z,5.50
2023-06-11T07:36:00.835Z,5.43
2023-06-11T07:38:30.795Z,5.90
2023-06-11T07:41:00.235Z,6.90
2023-06-11T07:43:29.566Z,5.70
2023-06-11T07:45:57.917Z,6.07
2023-06-11T07:48:28.337Z,5.17
2023-06-11T07:50:57.722Z,5.87
2023-06-11T07:53:29.932Z,5.97
2023-06-11T07:56:01.367Z,5.90
2023-06-11T07:58:29.692Z,6.43
2023-06-11T08:00:59.198Z,6.73
2023-06-11T08:03:29.900Z,6.30
2023-06-11T08:05:58.207Z,7.10
2023-06-11T08:08:28.646Z,6.30
2023-06-11T08:11:02.782Z,7.50
2023-06-11T08:13:36.008Z,6.87
2023-06-11T08:16:04.938Z,6.90
2023-06-11T08:18:39.694Z,7.40
2023-06-11T08:21:10.563Z,7.40
2023-06-11T08:23:43.485Z,7.97
2023-06-11T08:26:15.683Z,7.80
2023-06-11T08:28:49.149Z,6.97
2023-06-11T08:31:18.846Z,7.37
2023-06-11T08:33:47.890Z,8.00
2023-06-11T08:36:16.346Z,7.80
2023-06-11T08:38:46.700Z,8.50
2023-06-11T08:41:19.513Z,8.43
2023-06-11T08:43:49.612Z,9.40
2023-06-11T08:46:18.123Z,8.87
2023-06-11T08:48:47.129Z,9.53
2023-06-11T08:51:17.266Z,9.03
2023-06-11T08:53:47.668Z,9.50
2023-06-11T08:56:18.189Z,9.50
2023-06-11T08:58:47.141Z,9.00
2023-06-11T09:01:15.911Z,10.60
2023-06-11T09:03:44.351Z,11.10
2023-06-11T09:06:13.806Z,10.60
2023-06-11T09:08:42.181Z,11.17
2023-06-11T09:11:10.410Z,9.80
2023-06-11T09:13:42.557Z,11.37
2023-06-11T09:16:10.885Z,11.00
2023-06-11T09:18:39.725Z,10.60
2023-06-11T09:21:10.901Z,11.73
2023-06-11T09:23:47.455Z,9.97
2023-06-11T09:26:18.851Z,10.73
2023-06-11T09:28:52.544Z,10.57
2023-06-11T09:31:21.710Z,9.73
2023-06-11T09:33:54.697Z,10.10
2023-06-11T09:36:27.296Z,10.23
2023-06-11T09:38:56.971Z,10.60
2023-06-11T09:41:25.317Z,11.90
2023-06-11T09:43:55.186Z,10.17
2023-06-11T09:46:24.141Z,9.70
2023-06-11T09:48:52.686Z,8.27
2023-06-11T09:51:24.899Z,7.23
2023-06-11T09:53:53.826Z,8.70
2023-06-11T09:56:23.144Z,9.77
2023-06-11T09:58:55.455Z,8.17
2023-06-11T10:01:24.043Z,8.33
2023-06-11T10:03:53.944Z,9.60
2023-06-11T10:06:26.014Z,9.50
2023-06-11T10:08:55.622Z,10.13
2023-06-11T10:11:29.582Z,8.53
2023-06-11T10:14:01.666Z,9.73
2023-06-11T10:16:30.667Z,9.70
2023-06-11T10:19:07.375Z,9.90
2023-06-11T10:21:37.924Z,11.20
2023-06-11T10:24:06.875Z,9.43
2023-06-11T10:26:36.556Z,9.97
2023-06-11T10:29:12.773Z,9.50
2023-06-11T10:31:43.233Z,10.40
2023-06-11T10:34:15.705Z,10.97
2023-06-11T10:36:44.258Z,10.27
2023-06-11T10:39:27.033Z,11.07
2023-06-11T10:42:01.032Z,9.93
2023-06-11T10:44:31.851Z,11.13
2023-06-11T10:47:02.750Z,11.43
2023-06-11T10:49:31.324Z,11.30
2023-06-11T10:52:02.732Z,10.93
2023-06-11T10:54:35.310Z,10.47
2023-06-11T10:57:04.604Z,12.10
2023-06-11T10:59:34.546Z,11.60
2023-06-11T11:02:03.039Z,11.50
2023-06-11T11:04:31.454Z,11.10
2023-06-11T11:07:09.267Z,9.47
2023-06-11T11:09:38.801Z,8.40
2023-06-11T11:12:09.853Z,8.30
2023-06-11T11:14:39.836Z,7.90
2023-06-11T11:17:08.144Z,8.20
2023-06-11T11:19:38.025Z,8.67
2023-06-11T11:22:07.074Z,8.00
2023-06-11T11:24:39.836Z,8.30
2023-06-11T11:27:09.198Z,7.73
2023-06-11T11:29:39.444Z,8.37
2023-06-11T11:32:09.867Z,8.40
2023-06-11T11:34:41.052Z,8.00
2023-06-11T11:37:10.226Z,7.07
2023-06-11T11:39:39.646Z,8.40
2023-06-11T11:42:11.185Z,7.00
2023-06-11T11:44:43.188Z,7.23
2023-06-11T11:47:27.485Z,7.50
2023-06-11T11:49:57.748Z,7.43
2023-06-11T11:52:29.170Z,7.93
2023-06-11T11:54:58.685Z,7.90
2023-06-11T11:57:29.904Z,7.10
2023-06-11T11:59:59.263Z,7.27
2023-06-11T12:02:29.923Z,7.97
2023-06-11T12:05:00.519Z,7.00
2023-06-11T12:07:28.991Z,6.70
2023-06-11T12:09:58.512Z,7.27
2023-06-11T12:12:28.156Z,7.70
2023-06-11T12:14:56.305Z,8.13
2023-06-11T12:17:24.593Z,6.67
2023-06-11T12:19:54.288Z,7.27
2023-06-11T12:22:22.500Z,6.97
2023-06-11T12:24:50.840Z,7.87
2023-06-11T12:27:19.191Z,7.50
2023-06-11T12:29:52.062Z,7.00
2023-06-11T12:32:24.384Z,7.10
2023-06-11T12:34:54.564Z,6.73
2023-06-11T12:37:28.586Z,7.50
2023-06-11T12:39:57.306Z,7.50
2023-06-11T12:42:25.796Z,8.27
2023-06-11T12:44:53.981Z,8.87
2023-06-11T12:47:22.251Z,7.40
2023-06-11T12:49:50.540Z,8.40
2023-06-11T12:52:21.177Z,7.40
2023-06-11T12:54:49.404Z,7.93
2023-06-11T12:57:17.693Z,8.80
2023-06-11T12:59:46.091Z,8.10
2023-06-11T13:02:19.777Z,7.70
2023-06-11T13:04:50.939Z,8.10
2023-06-11T13:07:21.182Z,7.83
2023-06-11T13:09:50.633Z,8.60
2023-06-11T13:12:19.118Z,9.57
2023-06-11T13:14:47.605Z,11.87
2023-06-11T13:17:15.981Z,11.57
2023-06-11T13:19:44.368Z,12.03
2023-06-11T13:22:13.858Z,12.37
2023-06-11T13:24:45.643Z,12.03
2023-06-11T13:27:13.979Z,11.40
2023-06-11T13:29:43.004Z,14.10
2023-06-11T13:32:11.618Z,10.60
2023-06-11T13:34:39.971Z,8.63
2023-06-11T13:37:09.381Z,8.07
2023-06-11T13:39:38.697Z,8.73
2023-06-11T13:42:09.796Z,7.10
2023-06-11T13:44:38.046Z,7.47
2023-06-11T13:47:09.525Z,8.60
2023-06-11T13:49:40.127Z,7.47
2023-06-11T13:52:18.107Z,9.60
2023-06-11T13:54:50.723Z,10.00
2023-06-11T13:57:21.025Z,10.73
2023-06-11T13:59:49.489Z,10.90
2023-06-11T14:02:21.070Z,10.63
2023-06-11T14:04:51.472Z,10.47
2023-06-11T14:07:19.767Z,10.60
2023-06-11T14:09:52.929Z,8.37
2023-06-11T14:12:22.610Z,8.77
2023-06-11T14:14:50.972Z,8.40
2023-06-11T14:17:21.800Z,9.33
2023-06-11T14:19:50.870Z,8.20
2023-06-11T14:22:21.653Z,8.03
2023-06-11T14:24:50.278Z,7.80
2023-06-11T14:27:26.703Z,7.53
2023-06-11T14:29:56.605Z,8.03
2023-06-11T14:32:32.871Z,7.40
2023-06-11T14:35:01.450Z,7.80
2023-06-11T14:37:31.476Z,6.90
2023-06-11T14:40:00.649Z,8.13
2023-06-11T14:42:29.257Z,7.40
2023-06-11T14:45:02.038Z,8.53
2023-06-11T14:47:30.820Z,9.17
2023-06-11T14:49:59.334Z,9.00
2023-06-11T14:52:28.089Z,7.60
2023-06-11T14:55:07.277Z,8.50
2023-06-11T14:57:38.187Z,8.30
2023-06-11T15:00:10.499Z,7.90
2023-06-11T15:02:39.531Z,9.23
2023-06-11T15:05:08.592Z,8.17
2023-06-11T15:07:37.159Z,8.10
2023-06-11T15:10:09.166Z,8.47
2023-06-11T15:12:39.645Z,8.03
2023-06-11T15:15:11.463Z,6.70
2023-06-11T15:17:40.100Z,8.20
2023-06-11T15:20:10.020Z,8.10
2023-06-11T15:22:40.670Z,8.10
2023-06-11T15:25:11.546Z,6.50
2023-06-11T15:27:43.568Z,7.50
2023-06-11T15:30:16.284Z,7.90
2023-06-11T15:32:46.510Z,7.67
2023-06-11T15:35:15.974Z,7.10
2023-06-11T15:37:45.292Z,7.07
2023-06-11T15:40:15.069Z,6.90
2023-06-11T15:42:44.463Z,7.50
2023-06-11T15:45:14.767Z,7.13
2023-06-11T15:47:44.011Z,6.40
2023-06-11T15:50:13.555Z,7.20
2023-06-11T15:52:42.489Z,6.33
2023-06-11T15:55:13.744Z,6.40
2023-06-11T15:57:42.555Z,6.60
2023-06-11T16:00:12.254Z,7.00
2023-06-11T16:02:42.691Z,6.43
2023-06-11T16:05:11.602Z,6.20
2023-06-11T16:07:41.156Z,6.40
2023-06-11T16:10:17.907Z,6.30
2023-06-11T16:12:48.377Z,6.63
2023-06-11T16:15:17.167Z,5.50
2023-06-11T16:17:48.186Z,5.97
2023-06-11T16:20:17.332Z,6.33
2023-06-11T16:22:46.461Z,5.63
2023-06-11T16:25:15.925Z,5.77
2023-06-11T16:27:44.929Z,6.90
2023-06-11T16:30:15.078Z,6.40
2023-06-11T16:32:44.029Z,6.87
2023-06-11T16:35:18.475Z,6.57
2023-06-11T16:37:50.020Z,6.20
2023-06-11T16:40:19.047Z,5.63
2023-06-11T16:42:48.318Z,4.63
2023-06-11T16:45:17.743Z,5.23
2023-06-11T16:47:46.900Z,4.97
2023-06-11T16:50:17.310Z,5.00
2023-06-11T16:52:53.350Z,5.23
2023-06-11T16:55:23.422Z,5.20
2023-06-11T16:57:53.299Z,5.63
2023-06-11T17:00:23.930Z,4.60
2023-06-11T17:02:56.335Z,5.87
2023-06-11T17:05:27.102Z,4.83
2023-06-11T17:08:00.561Z,5.47
2023-06-11T17:10:32.291Z,5.50
2023-06-11T17:13:01.431Z,4.73
2023-06-11T17:15:30.344Z,4.87
2023-06-11T17:18:01.736Z,5.33
2023-06-11T17:20:32.504Z,5.43
2023-06-11T17:23:02.508Z,5.73
2023-06-11T17:25:31.735Z,5.50
2023-06-11T17:28:01.109Z,5.50
2023-06-11T17:30:30.421Z,5.07
2023-06-11T17:33:01.267Z,5.67
2023-06-11T17:35:32.718Z,5.53
2023-06-11T17:38:02.513Z,4.50
2023-06-11T17:40:32.251Z,5.30
2023-06-11T17:43:02.571Z,5.57
2023-06-11T17:45:34.095Z,5.37
2023-06-11T17:48:04.742Z,5.60
2023-06-11T17:50:35.455Z,5.80
2023-06-11T17:53:04.961Z,5.57
2023-06-11T17:55:35.904Z,5.67
2023-06-11T17:58:05.221Z,5.33
2023-06-11T18:00:35.885Z,5.00
2023-06-11T18:03:05.434Z,5.43
2023-06-11T18:05:36.125Z,6.07
2023-06-11T18:08:05.575Z,5.67
2023-06-11T18:10:36.222Z,5.77
2023-06-11T18:13:05.811Z,5.80
2023-06-11T18:15:36.360Z,5.23
2023-06-11T18:18:07.821Z,5.47
2023-06-11T18:20:38.536Z,5.80
2023-06-11T18:23:09.003Z,5.30
2023-06-11T18:25:38.398Z,6.30
2023-06-11T18:28:07.790Z,7.70
2023-06-11T18:30:37.299Z,6.13
2023-06-11T18:33:06.761Z,6.10
2023-06-11T18:35:37.431Z,6.50
2023-06-11T18:38:08.097Z,7.37
2023-06-11T18:40:37.535Z,7.07
2023-06-11T18:43:06.872Z,7.17
2023-06-11T18:45:36.742Z,7.60
2023-06-11T18:48:06.556Z,7.33
2023-06-11T18:50:35.923Z,7.00
2023-06-11T18:53:05.195Z,8.40
2023-06-11T18:55:36.069Z,7.50
2023-06-11T18:58:08.208Z,7.53
2023-06-11T19:00:37.904Z,8.10
2023-06-11T19:03:07.276Z,7.90
2023-06-11T19:05:36.593Z,7.77
2023-06-11T19:08:07.819Z,7.53
2023-06-11T19:10:38.510Z,8.73
2023-06-11T19:13:07.845Z,7.50
2023-06-11T19:15:38.033Z,8.70
2023-06-11T19:18:07.576Z,7.40
2023-06-11T19:20:37.032Z,8.73
2023-06-11T19:23:06.306Z,7.73
2023-06-11T19:25:35.972Z,8.20
2023-06-11T19:28:06.836Z,8.60
2023-06-11T19:30:36.215Z,8.27
2023-06-11T19:33:05.767Z,8.47
2023-06-11T19:35:35.471Z,8.47
2023-06-11T19:38:04.914Z,7.57
2023-06-11T19:40:34.408Z,8.37
2023-06-11T19:43:03.685Z,7.97
2023-06-11T19:45:34.418Z,8.13
2023-06-11T19:48:04.270Z,8.23
2023-06-11T19:50:33.572Z,7.50
2023-06-11T19:53:04.563Z,7.87
2023-06-11T19:55:37.287Z,8.70
2023-06-11T19:58:08.624Z,8.17
2023-06-11T20:00:39.426Z,8.63
2023-06-11T20:03:08.893Z,8.50
2023-06-11T20:05:40.971Z,8.07
2023-06-11T20:08:10.808Z,8.43
2023-06-11T20:10:41.102Z,8.27
2023-06-11T20:13:10.735Z,8.40
2023-06-11T20:15:41.436Z,8.57
2023-06-11T20:18:10.780Z,8.70
2023-06-11T20:20:40.123Z,9.40
2023-06-11T20:23:09.436Z,9.37
2023-06-11T20:25:38.813Z,8.27
2023-06-11T20:28:08.183Z,8.63
2023-06-11T20:30:37.554Z,8.00
2023-06-11T20:33:09.853Z,8.20
2023-06-11T20:35:39.212Z,9.03
2023-06-11T20:38:08.442Z,8.77
2023-06-11T20:40:37.684Z,8.50
2023-06-11T20:43:06.876Z,8.70
2023-06-11T20:45:38.199Z,8.73
2023-06-11T20:48:09.562Z,8.90
2023-06-11T20:50:38.659Z,8.47
2023-06-11T20:53:16.699Z,8.50
2023-06-11T20:55:56.746Z,8.80
2023-06-11T20:58:25.792Z,8.80
2023-06-11T21:00:54.206Z,9.73
2023-06-11T21:03:23.950Z,9.20
2023-06-11T21:05:52.454Z,9.40
2023-06-11T21:08:21.436Z,8.50
2023-06-11T21:10:49.969Z,9.97
2023-06-11T21:13:18.223Z,9.43
2023-06-11T21:15:46.503Z,9.10
2023-06-11T21:18:15.032Z,9.20
2023-06-11T21:20:44.723Z,8.77
2023-06-11T21:23:12.978Z,8.50
2023-06-11T21:25:42.600Z,9.60
2023-06-11T21:28:11.188Z,8.17
2023-06-11T21:30:40.624Z,10.03
2023-06-11T21:33:09.090Z,7.53
2023-06-11T21:35:37.323Z,8.67
2023-06-11T21:38:08.001Z,7.80
2023-06-11T21:40:36.211Z,9.37
2023-06-11T21:43:04.477Z,8.60
2023-06-11T21:45:32.710Z,8.40
2023-06-11T21:48:01.072Z,8.20
2023-06-11T21:50:29.471Z,7.63
2023-06-11T21:52:58.491Z,9.70
2023-06-11T21:55:28.127Z,8.30
2023-06-11T21:57:57.243Z,8.47
2023-06-11T22:00:27.154Z,8.70
2023-06-11T22:02:55.483Z,7.47
2023-06-11T22:05:23.999Z,8.30
2023-06-11T22:07:52.485Z,7.90
2023-06-11T22:10:21.460Z,7.87
2023-06-11T22:12:51.121Z,9.27
2023-06-11T22:15:19.395Z,7.83
2023-06-11T22:17:49.380Z,8.07
2023-06-11T22:20:19.420Z,8.57
2023-06-11T22:22:48.280Z,7.83
2023-06-11T22:25:16.477Z,8.50
2023-06-11T22:27:44.861Z,8.10
2023-06-11T22:30:15.433Z,7.03
2023-06-11T22:32:43.967Z,7.23
2023-06-11T22:35:12.346Z,7.40
2023-06-11T22:37:40.543Z,7.67
2023-06-11T22:40:09.954Z,6.57
2023-06-11T22:42:38.243Z,6.90
2023-06-11T22:45:07.479Z,7.03
2023-06-11T22:47:37.613Z,7.83
2023-06-11T22:50:06.810Z,6.40
2023-06-11T22:52:39.589Z,6.37
2023-06-11T22:55:09.068Z,6.40
2023-06-11T22:57:37.897Z,7.10
2023-06-11T23:00:08.208Z,6.57
2023-06-11T23:02:38.725Z,6.97
2023-06-11T23:06:10.826Z,6.63
2023-06-11T23:08:41.456Z,6.67
2023-06-11T23:11:10.083Z,6.30
2023-06-11T23:13:38.432Z,6.43
2023-06-11T23:16:10.514Z,7.00
2023-06-11T23:22:26.415Z,5.93
2023-06-11T23:25:01.308Z,6.60
2023-06-11T23:27:32.520Z,7.07
2023-06-11T23:30:03.927Z,7.87
2023-06-11T23:32:50.361Z,7.00
2023-06-11T23:35:29.254Z,6.73
2023-06-11T23:42:30.926Z,6.60
2023-06-11T23:45:01.374Z,6.70
2023-06-11T23:51:35.211Z,6.70
2023-06-11T23:59:53.740Z,6.73
